Time;durP1;ratioP1;P1;durP2;ratioP2;P2;SDS_P1;SDS_P2;PMS_P1;PMS_P2;Temp;Humidity;BMP_temperature;BMP_pressure;BME280_temperature;BME280_humidity;BME280_pressure;Samples;Min_cycle;Max_cycle;Signal;HPM_P1;HPM_P2
2022/07/09 00:01:34;;;;;;;5.97;3.00;;;;;;;18.64;50.46;99900.81;7012545;28;20201;-80
2022/07/09 00:04:55;;;;;;;4.93;2.93;;;;;;;18.90;50.13;99894.16;7011923;28;20588;-80
2022/07/09 00:08:17;;;;;;;5.23;2.77;;;;;;;19.04;49.54;99898.41;7012046;28;20230;-80
2022/07/09 00:11:38;;;;;;;5.50;2.50;;;;;;;19.11;49.50;99905.41;7012848;28;20198;-80
2022/07/09 00:15:01;;;;;;;4.67;2.90;;;;;;;18.98;49.50;99902.88;7012527;28;20229;-80
2022/07/09 00:18:24;;;;;;;4.40;2.57;;;;;;;18.74;50.52;99906.59;7010991;28;20210;-80
2022/07/09 00:21:45;;;;;;;4.70;3.17;;;;;;;18.72;50.55;99903.25;7014465;28;20204;-79
2022/07/09 00:25:08;;;;;;;5.10;2.97;;;;;;;18.82;49.91;99909.00;7013222;28;20236;-80
2022/07/09 00:28:29;;;;;;;4.40;3.00;;;;;;;18.70;50.24;99886.25;7022630;28;20226;-80
2022/07/09 00:31:52;;;;;;;5.63;2.90;;;;;;;18.77;50.33;99897.09;7024510;28;20197;-79
2022/07/09 00:35:14;;;;;;;4.70;3.23;;;;;;;18.60;50.99;99894.19;7026753;28;20268;-80
2022/07/09 00:38:35;;;;;;;4.33;3.07;;;;;;;18.70;50.06;99880.78;7013878;28;20287;-80
2022/07/09 00:42:05;;;;;;;3.27;2.70;;;;;;;18.66;50.48;99887.78;7018346;28;20182;-79
2022/07/09 00:45:26;;;;;;;5.80;3.37;;;;;;;18.08;51.49;99877.56;7031535;28;20229;-79
2022/07/09 00:48:49;;;;;;;5.13;2.80;;;;;;;18.11;52.15;99868.94;7022158;28;20213;-80
2022/07/09 00:52:13;;;;;;;3.60;2.80;;;;;;;18.06;52.34;99846.94;7006794;28;20265;-81
2022/07/09 00:55:35;;;;;;;5.20;3.20;;;;;;;17.80;53.01;99863.59;7006344;28;20226;-80
2022/07/09 00:58:57;;;;;;;3.37;3.00;;;;;;;17.84;52.72;99862.94;7007431;28;20208;-80
2022/07/09 01:02:19;;;;;;;4.97;3.50;;;;;;;17.55;54.29;99870.97;7007629;28;20260;-80
2022/07/09 01:05:42;;;;;;;3.70;3.30;;;;;;;17.93;52.69;99855.28;7007131;28;20206;-80
2022/07/09 01:09:04;;;;;;;5.70;3.53;;;;;;;17.49;53.68;99844.59;7007720;28;20205;-80
2022/07/09 01:12:26;;;;;;;5.20;3.13;;;;;;;17.63;54.51;99865.25;7009777;28;20232;-80
2022/07/09 01:15:47;;;;;;;5.53;3.37;;;;;;;17.48;54.05;99827.41;7007823;28;20677;-80
2022/07/09 01:19:09;;;;;;;5.37;3.17;;;;;;;17.78;53.55;99858.38;7006407;28;20209;-80
2022/07/09 01:22:32;;;;;;;4.30;3.57;;;;;;;18.16;52.31;99860.88;7007875;28;20190;-80
2022/07/09 01:25:56;;;;;;;6.53;3.43;;;;;;;17.98;52.36;99856.25;7008431;28;20202;-80
2022/07/09 01:29:18;;;;;;;6.20;3.10;;;;;;;17.93;53.09;99856.09;7036361;28;20205;-80
2022/07/09 01:32:39;;;;;;;3.87;3.40;;;;;;;17.88;53.03;99855.94;7038375;28;20209;-80
2022/07/09 01:36:01;;;;;;;4.37;3.27;;;;;;;17.49;53.39;99801.81;7038990;28;20210;-80
2022/07/09 01:39:24;;;;;;;5.13;3.10;;;;;;;18.16;51.04;99807.09;7048407;28;20193;-80
2022/07/09 01:42:45;;;;;;;5.37;3.10;;;;;;;18.15;51.87;99821.81;7049505;28;20225;-80
2022/07/09 01:46:07;;;;;;;4.97;3.30;;;;;;;17.64;53.30;99828.72;7039550;28;20232;-80
2022/07/09 01:49:28;;;;;;;5.00;3.60;;;;;;;17.47;54.05;99817.56;7032316;28;20197;-80
2022/07/09 01:52:50;;;;;;;3.53;3.23;;;;;;;18.07;52.52;99837.69;7032087;28;20274;-80
2022/07/09 01:56:13;;;;;;;4.37;3.47;;;;;;;17.73;53.40;99838.28;7032424;28;20208;-80
2022/07/09 01:59:35;;;;;;;6.40;3.93;;;;;;;17.55;53.64;99822.72;7032243;28;20205;-80
2022/07/09 02:02:56;;;;;;;4.30;3.40;;;;;;;17.47;54.23;99833.94;7032215;28;20229;-80
2022/07/09 02:06:18;;;;;;;5.77;3.27;;;;;;;17.49;54.47;99830.97;7032485;28;20268;-80
2022/07/09 02:09:40;;;;;;;6.10;3.17;;;;;;;17.57;53.47;99819.78;7031549;28;20658;-80
2022/07/09 02:13:03;;;;;;;6.37;3.70;;;;;;;17.49;54.14;99822.78;7032834;28;20298;-80
2022/07/09 02:16:25;;;;;;;4.70;3.57;;;;;;;17.35;54.40;99800.22;7033032;28;20302;-80
2022/07/09 02:19:46;;;;;;;5.07;3.67;;;;;;;17.40;54.01;99819.50;7030932;28;20566;-80
2022/07/09 02:23:08;;;;;;;4.60;3.30;;;;;;;16.86;55.07;99766.72;7026472;28;20225;-80
2022/07/09 02:26:30;;;;;;;5.77;3.60;;;;;;;17.08;54.68;99806.13;7044813;28;20231;-80
2022/07/09 02:29:52;;;;;;;4.30;3.20;;;;;;;17.39;54.13;99819.75;7045744;28;20802;-80
2022/07/09 02:33:14;;;;;;;5.23;3.70;;;;;;;17.27;53.66;99786.88;7062173;28;20232;-80
2022/07/09 02:36:36;;;;;;;4.17;3.60;;;;;;;17.18;55.01;99818.22;7039859;28;20589;-80
2022/07/09 02:39:57;;;;;;;5.27;3.43;;;;;;;17.47;54.19;99819.44;7039530;28;20262;-80
2022/07/09 02:43:19;;;;;;;4.23;3.23;;;;;;;17.67;53.26;99795.53;7037701;28;20308;-80
2022/07/09 02:46:42;;;;;;;4.47;3.47;;;;;;;17.06;54.52;99790.03;7036931;28;20221;-80
2022/07/09 02:50:04;;;;;;;6.13;3.73;;;;;;;17.07;54.75;99818.94;7037205;28;20209;-81
2022/07/09 02:53:25;;;;;;;4.43;3.50;;;;;;;17.31;54.35;99819.97;7037554;28;20595;-80
2022/07/09 02:56:47;;;;;;;5.13;3.57;;;;;;;17.34;53.95;99795.03;7038460;28;20208;-79
2022/07/09 03:00:09;;;;;;;4.47;3.30;;;;;;;17.68;52.98;99814.41;7037792;28;20208;-80
2022/07/09 03:03:35;;;;;;;6.83;3.57;;;;;;;17.30;53.44;99801.97;7038368;28;20249;-80
2022/07/09 03:06:57;;;;;;;4.87;3.60;;;;;;;17.46;53.96;99823.25;7038643;28;20205;-80
2022/07/09 03:10:18;;;;;;;5.63;3.83;;;;;;;17.62;53.19;99823.50;7038906;28;20205;-80
2022/07/09 03:13:40;;;;;;;3.70;3.40;;;;;;;17.92;52.70;99824.41;7039105;28;20231;-80
2022/07/09 03:17:01;;;;;;;6.00;3.70;;;;;;;17.85;52.35;99825.53;7040203;28;20680;-80
2022/07/09 03:20:25;;;;;;;5.40;3.60;;;;;;;17.93;52.22;99828.81;7038259;28;20266;-80
2022/07/09 03:23:47;;;;;;;3.87;3.43;;;;;;;17.59;52.03;99832.13;7039998;28;20538;-81
2022/07/09 03:27:09;;;;;;;7.00;4.07;;;;;;;17.34;53.97;99833.19;7039271;28;20235;-80
2022/07/09 03:30:30;;;;;;;5.23;3.57;;;;;;;17.05;54.56;99842.84;7039675;28;20207;-80
2022/07/09 03:33:53;;;;;;;6.37;3.67;;;;;;;16.88;55.50;99846.34;7039484;28;20282;-80
2022/07/09 03:37:16;;;;;;;5.27;3.70;;;;;;;17.08;54.96;99838.84;7039839;28;20229;-80
2022/07/09 03:40:37;;;;;;;5.97;4.10;;;;;;;17.01;54.98;99851.69;7039140;28;20224;-80
2022/07/09 03:43:59;;;;;;;4.60;4.00;;;;;;;17.47;54.07;99844.00;7039515;28;20354;-80
2022/07/09 03:47:20;;;;;;;4.63;3.63;;;;;;;17.76;53.03;99846.84;7038669;28;20228;-80
2022/07/09 03:50:42;;;;;;;5.33;3.80;;;;;;;17.56;53.13;99843.47;7039231;28;20332;-79
2022/07/09 03:54:05;;;;;;;4.43;3.30;;;;;;;17.38;52.73;99815.34;7039756;28;20321;-79
2022/07/09 03:57:26;;;;;;;3.83;3.33;;;;;;;17.72;52.14;99839.34;7039236;28;20292;-80
2022/07/09 04:00:48;;;;;;;5.40;3.90;;;;;;;17.38;52.92;99831.69;7039055;28;20208;-80
2022/07/09 04:04:10;;;;;;;7.63;3.90;;;;;;;17.52;53.13;99842.25;7023644;28;20217;-80
2022/07/09 04:07:31;;;;;;;5.77;3.80;;;;;;;17.43;53.03;99834.59;7019722;28;20229;-80
2022/07/09 04:10:54;;;;;;;8.23;3.70;;;;;;;17.21;54.32;99853.19;7011629;28;20812;-79
2022/07/09 04:14:16;;;;;;;4.43;3.30;;;;;;;17.67;53.09;99839.16;7011169;28;20233;-79
2022/07/09 04:17:37;;;;;;;4.07;3.67;;;;;;;17.70;53.03;99844.19;7012140;28;20298;-79
2022/07/09 04:20:59;;;;;;;4.03;3.53;;;;;;;17.60;53.27;99844.72;7012628;28;20483;-79
2022/07/09 04:24:21;;;;;;;4.60;3.67;;;;;;;17.42;54.13;99847.41;7036270;28;20209;-79
2022/07/09 04:27:44;;;;;;;4.50;3.70;;;;;;;17.39;53.81;99822.47;7020132;28;20687;-80
2022/07/09 04:31:05;;;;;;;4.43;3.40;;;;;;;17.82;52.92;99845.09;7033114;28;20193;-79
2022/07/09 04:34:27;;;;;;;6.40;3.60;;;;;;;17.93;53.06;99852.53;7041561;28;20297;-80
2022/07/09 04:37:48;;;;;;;5.13;3.50;;;;;;;17.81;52.46;99819.72;7019545;28;20201;-80
2022/07/09 04:41:10;;;;;;;5.17;4.10;;;;;;;18.16;52.29;99830.88;7035500;28;20237;-80
2022/07/09 04:44:33;;;;;;;7.33;3.70;;;;;;;18.28;51.90;99839.94;7035606;28;20250;-80
2022/07/09 04:47:54;;;;;;;3.97;3.30;;;;;;;17.96;52.87;99824.78;7030031;28;20217;-79
2022/07/09 04:51:16;;;;;;;6.90;3.83;;;;;;;18.45;52.43;99855.50;7014626;28;20293;-79
2022/07/09 04:54:37;;;;;;;5.97;3.20;;;;;;;18.53;52.18;99844.28;7033766;28;20259;-80
2022/07/09 04:57:59;;;;;;;6.80;3.47;;;;;;;18.82;50.92;99843.41;7033651;28;20269;-80
2022/07/09 05:01:22;;;;;;;3.40;3.10;;;;;;;18.38;51.68;99837.53;7019195;28;20189;-80
2022/07/09 05:04:44;;;;;;;5.23;3.57;;;;;;;17.93;52.54;99830.72;7034282;28;20238;-80
2022/07/09 05:08:06;;;;;;;3.70;2.90;;;;;;;18.49;51.67;99840.31;7024250;28;20582;-80
2022/07/09 05:11:27;;;;;;;5.97;3.27;;;;;;;19.55;49.45;99842.03;7007251;28;20202;-80
2022/07/09 05:14:49;;;;;;;6.03;3.50;;;;;;;19.74;48.13;99820.88;7007076;28;20230;-80
2022/07/09 05:18:12;;;;;;;5.67;3.33;;;;;;;20.01;47.95;99809.16;7006693;28;20229;-80
2022/07/09 05:21:33;;;;;;;4.73;3.77;;;;;;;20.83;46.69;99843.44;7010035;28;20189;-80
2022/07/09 05:24:55;;;;;;;5.77;3.63;;;;;;;21.22;45.70;99843.34;7036715;28;20246;-80
2022/07/09 05:28:16;;;;;;;4.37;2.67;;;;;;;21.13;44.38;99812.75;7024962;28;20274;-80
2022/07/09 05:31:38;;;;;;;5.00;2.87;;;;;;;21.74;44.01;99800.84;7025087;28;20277;-80
2022/07/09 05:35:01;;;;;;;5.03;3.20;;;;;;;22.19;43.54;99829.75;7011260;28;20225;-80
2022/07/09 05:38:22;;;;;;;4.57;2.90;;;;;;;22.49;42.02;99826.59;7024631;28;20208;-80
2022/07/09 05:41:44;;;;;;;5.57;2.70;;;;;;;22.61;41.10;99830.84;7024063;28;20197;-80
2022/07/09 05:45:07;;;;;;;7.83;2.93;;;;;;;22.69;41.07;99819.41;7036987;28;20250;-79
2022/07/09 05:48:29;;;;;;;5.10;2.80;;;;;;;23.37;39.90;99818.69;7029363;28;20252;-79
2022/07/09 05:51:52;;;;;;;4.43;2.70;;;;;;;23.55;38.61;99834.81;7016446;28;20254;-80
2022/07/09 05:55:14;;;;;;;3.00;2.40;;;;;;;23.47;39.45;99832.53;7030902;28;20253;-79
2022/07/09 05:58:37;;;;;;;3.53;2.27;;;;;;;23.46;39.24;99820.69;7009173;28;20194;-79
2022/07/09 06:01:59;;;;;;;3.23;2.30;;;;;;;23.86;37.88;99815.47;7007870;28;20196;-79
2022/07/09 06:05:20;;;;;;;3.90;2.83;;;;;;;23.76;38.51;99823.66;7002502;28;20315;-79
2022/07/09 06:08:43;;;;;;;3.60;2.77;;;;;;;23.98;37.54;99809.78;7002186;28;20235;-79
2022/07/09 06:12:05;;;;;;;2.87;2.40;;;;;;;24.74;36.91;99826.41;7003603;28;20246;-79
2022/07/09 06:15:27;;;;;;;5.50;2.47;;;;;;;24.69;37.62;99823.63;7003477;28;20223;-79
2022/07/09 06:18:50;;;;;;;3.13;2.20;;;;;;;25.35;36.44;99814.34;7002344;28;20301;-79
2022/07/09 06:22:11;;;;;;;5.90;2.80;;;;;;;25.33;36.40;99797.22;7018352;28;20608;-79
2022/07/09 06:25:34;;;;;;;4.27;2.23;;;;;;;25.70;35.63;99810.72;7008254;28;20690;-80
2022/07/09 06:28:56;;;;;;;5.40;2.37;;;;;;;25.69;35.49;99812.66;7014825;28;20340;-79
2022/07/09 06:32:17;;;;;;;7.87;2.80;;;;;;;25.91;34.91;99807.69;7011958;28;20237;-79
2022/07/09 06:35:39;;;;;;;3.63;2.33;;;;;;;25.88;34.79;99793.53;7004620;28;20319;-80
2022/07/09 06:42:41;;;;;;;4.33;2.30;;;;;;;25.86;34.97;99815.09;7003198;28;20204;-79
2022/07/09 06:46:02;;;;;;;3.60;2.50;;;;;;;26.70;33.60;99802.94;7010466;28;20214;-84
2022/07/09 06:49:24;;;;;;;2.67;2.10;;;;;;;26.07;34.11;99780.81;7027124;28;20242;-79
2022/07/09 06:52:46;;;;;;;4.07;2.30;;;;;;;26.84;33.43;99800.38;7031668;28;20222;-79
2022/07/09 06:56:08;;;;;;;6.60;2.23;;;;;;;26.76;33.32;99798.19;7031576;28;20217;-79
2022/07/09 06:59:31;;;;;;;5.77;2.20;;;;;;;27.14;32.50;99797.41;7031040;28;20243;-79
2022/07/09 07:02:52;;;;;;;3.70;2.43;;;;;;;26.97;33.36;99799.72;7031099;28;20221;-79
2022/07/09 07:06:14;;;;;;;3.40;2.10;;;;;;;26.63;32.47;99743.50;7030540;28;20251;-79
2022/07/09 07:09:35;;;;;;;2.90;1.93;;;;;;;27.03;32.40;99777.28;7030534;28;20722;-79
2022/07/09 07:12:57;;;;;;;2.90;2.10;;;;;;;27.54;31.46;99794.31;7030958;28;20377;-79
2022/07/09 07:16:20;;;;;;;4.77;2.37;;;;;;;27.41;30.82;99804.13;7035435;28;20284;-79
2022/07/09 07:19:41;;;;;;;3.83;2.10;;;;;;;27.70;30.73;99799.41;7034653;28;20217;-79
2022/07/09 07:23:03;;;;;;;3.80;2.10;;;;;;;27.61;31.00;99795.59;7036058;28;20232;-79
2022/07/09 07:26:24;;;;;;;6.37;2.57;;;;;;;27.58;30.40;99807.28;7036025;28;20228;-79
2022/07/09 07:29:46;;;;;;;4.90;2.03;;;;;;;28.20;30.01;99800.84;7034488;28;20322;-79
2022/07/09 07:33:09;;;;;;;2.90;2.10;;;;;;;28.29;29.83;99802.66;7035583;28;20298;-79
2022/07/09 07:36:30;;;;;;;3.90;2.20;;;;;;;28.96;29.07;99799.56;7036307;28;20229;-79
2022/07/09 07:39:52;;;;;;;5.83;2.10;;;;;;;28.48;29.82;99752.78;7035503;28;20206;-79
2022/07/09 07:43:14;;;;;;;5.33;2.47;;;;;;;27.09;32.32;99792.72;7035320;28;20254;-79
2022/07/09 07:46:35;;;;;;;4.87;1.87;;;;;;;28.35;31.05;99787.59;7035966;28;20292;-79
2022/07/09 07:49:59;;;;;;;6.17;2.30;;;;;;;27.94;31.27;99794.75;7035835;28;20607;-79
2022/07/09 07:53:21;;;;;;;5.70;2.30;;;;;;;28.30;31.49;99786.84;7033753;28;20279;-78
2022/07/09 07:56:43;;;;;;;2.97;2.10;;;;;;;28.23;31.34;99795.53;7036791;28;20204;-79
2022/07/09 08:00:05;;;;;;;5.53;2.10;;;;;;;27.59;32.30;99791.47;7033240;28;20198;-78
2022/07/09 08:03:27;;;;;;;3.80;2.20;;;;;;;27.54;32.05;99803.44;7036425;28;20229;-79
2022/07/09 08:06:50;;;;;;;7.90;2.40;;;;;;;27.35;32.75;99802.50;7034839;28;20201;-79
2022/07/09 08:10:11;;;;;;;3.80;2.10;;;;;;;28.31;31.74;99786.53;7027729;28;20226;-79
2022/07/09 08:13:33;;;;;;;4.03;2.10;;;;;;;28.80;30.75;99786.16;7035247;28;20324;-79
2022/07/09 08:16:54;;;;;;;5.40;2.50;;;;;;;29.17;30.75;99781.44;7035440;28;20209;-80
2022/07/09 08:20:16;;;;;;;3.33;2.27;;;;;;;28.83;30.93;99774.47;7045832;28;20236;-80
2022/07/09 08:23:53;;;;;;;4.77;2.27;;;;;;;27.50;32.87;99782.16;7037616;28;20225;-79
2022/07/09 08:27:15;;;;;;;2.63;2.00;;;;;;;29.15;31.44;99778.16;7047773;28;20182;-79
2022/07/09 08:30:37;;;;;;;2.83;1.80;;;;;;;29.44;30.59;99764.88;7045517;28;20226;-79
2022/07/09 08:33:58;;;;;;;4.23;2.07;;;;;;;30.20;29.12;99762.31;7039648;28;20221;-81
2022/07/09 08:37:20;;;;;;;2.37;1.77;;;;;;;30.05;29.57;99772.91;7039711;28;20214;-80
2022/07/09 08:40:44;;;;;;;3.33;2.00;;;;;;;29.11;30.46;99768.78;7015337;28;20269;-80
2022/07/09 08:44:11;;;;;;;2.40;1.60;;;;;;;28.46;32.01;99760.56;7009836;28;20772;-80
2022/07/09 08:47:32;;;;;;;3.90;1.80;;;;;;;28.11;31.28;99697.19;7008322;28;20224;-80
2022/07/09 08:50:54;;;;;;;2.67;2.10;;;;;;;27.95;32.72;99763.13;7009189;28;20204;-80
2022/07/09 08:54:16;;;;;;;4.40;1.77;;;;;;;28.01;33.06;99744.50;7033650;28;20223;-80
2022/07/09 08:57:39;;;;;;;3.47;1.70;;;;;;;28.77;31.96;99745.94;7029094;28;20204;-80
2022/07/09 09:01:01;;;;;;;1.97;1.50;;;;;;;28.14;32.11;99746.53;7009223;28;20213;-80
2022/07/09 09:04:23;;;;;;;4.77;1.77;;;;;;;28.64;32.34;99743.09;7007986;28;20273;-82
2022/07/09 09:07:44;;;;;;;1.87;1.50;;;;;;;29.52;30.66;99725.25;7007264;28;20301;-80
2022/07/09 09:11:07;;;;;;;2.70;1.57;;;;;;;29.48;30.14;99729.78;7033431;28;20211;-81
2022/07/09 09:14:31;;;;;;;3.50;1.80;;;;;;;30.26;29.57;99721.31;7020554;28;20232;-81
2022/07/09 09:17:53;;;;;;;3.40;1.63;;;;;;;30.62;28.59;99730.53;7037448;28;20218;-80
2022/07/09 09:21:15;;;;;;;1.67;1.43;;;;;;;30.66;28.35;99712.91;7036861;28;20576;-80
2022/07/09 09:24:37;;;;;;;1.80;1.30;;;;;;;29.27;29.98;99695.16;7036266;28;20232;-80
2022/07/09 09:27:59;;;;;;;1.50;1.40;;;;;;;30.11;29.00;99719.69;7040673;28;20799;-81
2022/07/09 09:31:24;;;;;;;1.50;1.40;;;;;;;30.55;28.83;99714.22;7039751;28;20215;-81
2022/07/09 09:34:49;;;;;;;4.13;1.50;;;;;;;30.77;28.26;99689.25;7011409;28;20225;-80
2022/07/09 09:38:11;;;;;;;3.77;1.73;;;;;;;31.22;27.38;99696.50;7010265;28;20738;-81
2022/07/09 09:41:33;;;;;;;2.70;1.20;;;;;;;31.80;26.59;99699.09;7011985;28;20208;-80
2022/07/09 09:44:59;;;;;;;2.00;1.30;;;;;;;32.20;25.68;99683.97;7010911;28;20242;-81
2022/07/09 09:48:23;;;;;;;2.20;1.10;;;;;;;31.17;26.28;99693.78;7009412;28;20229;-80
2022/07/09 09:51:48;;;;;;;1.07;0.83;;;;;;;30.94;26.54;99700.50;7008708;28;20223;-81
2022/07/09 09:55:10;;;;;;;1.63;1.10;;;;;;;31.17;25.62;99699.38;7008483;28;20784;-81
2022/07/09 09:58:32;;;;;;;2.73;1.40;;;;;;;30.35;26.81;99698.00;7007337;28;20202;-81
2022/07/09 10:01:54;;;;;;;1.07;0.90;;;;;;;31.62;25.27;99689.81;7007531;28;20301;-81
2022/07/09 10:05:17;;;;;;;1.27;1.07;;;;;;;31.25;25.84;99695.84;7007808;28;20223;-81
2022/07/09 10:08:38;;;;;;;3.90;1.50;;;;;;;29.84;27.58;99663.22;7015397;28;20227;-81
2022/07/09 10:12:00;;;;;;;1.50;1.20;;;;;;;30.27;27.28;99684.84;7007324;28;20217;-81
2022/07/09 10:15:23;;;;;;;2.50;1.40;;;;;;;28.90;29.73;99686.88;7010796;28;20263;-81
2022/07/09 10:18:52;;;;;;;3.17;1.80;;;;;;;29.71;27.89;99656.53;7028848;28;20204;-80
2022/07/09 10:22:14;;;;;;;2.33;1.13;;;;;;;31.35;26.84;99650.97;7009648;28;20212;-80
2022/07/09 10:25:44;;;;;;;1.83;1.40;;;;;;;29.86;26.81;99672.91;7031688;28;20208;-81
2022/07/09 10:29:19;;;;;;;1.57;1.20;;;;;;;31.10;26.07;99659.16;7042949;28;20319;-81
2022/07/09 10:32:42;;;;;;;2.90;1.40;;;;;;;30.43;27.66;99663.84;7011348;28;20401;-81
2022/07/09 10:36:11;;;;;;;2.77;1.40;;;;;;;31.39;26.57;99654.78;7033035;28;20221;-81
2022/07/09 10:39:35;;;;;;;2.80;1.03;;;;;;;32.12;23.44;99654.88;7035880;28;20205;-81
2022/07/09 10:43:01;;;;;;;2.53;1.30;;;;;;;33.11;23.21;99655.59;7036314;28;20214;-81
2022/07/09 10:46:22;;;;;;;1.70;1.30;;;;;;;33.33;22.63;99651.78;7013219;28;20246;-82
2022/07/09 10:49:44;;;;;;;3.03;1.67;;;;;;;32.97;23.47;99662.53;7013314;28;20706;-80
2022/07/09 10:53:06;;;;;;;2.07;1.47;;;;;;;32.69;23.52;99636.91;7013615;28;20477;-81
2022/07/09 10:56:29;;;;;;;3.53;1.97;;;;;;;32.14;24.64;99658.16;7039900;28;20197;-82
2022/07/09 10:59:50;;;;;;;4.63;2.00;;;;;;;32.45;24.56;99660.88;7042125;28;20571;-81
2022/07/09 11:03:12;;;;;;;5.63;2.80;;;;;;;32.89;24.25;99650.22;7039503;28;20795;-81
2022/07/09 11:06:34;;;;;;;2.70;1.93;;;;;;;32.49;24.06;99653.50;7011712;28;20214;-81
2022/07/09 11:09:55;;;;;;;4.33;1.50;;;;;;;30.43;25.98;99652.72;7011457;28;20227;-80
2022/07/09 11:13:18;;;;;;;2.47;1.50;;;;;;;30.53;26.55;99648.88;7012156;28;20226;-80
2022/07/09 11:16:40;;;;;;;1.60;1.10;;;;;;;30.28;25.42;99638.34;7011407;28;20202;-80
2022/07/09 11:20:02;;;;;;;2.70;1.30;;;;;;;30.67;25.32;99652.47;7010520;28;20253;-81
2022/07/09 11:23:24;;;;;;;2.37;1.30;;;;;;;30.58;25.51;99643.19;7014140;28;20252;-81
2022/07/09 11:26:46;;;;;;;4.13;1.53;;;;;;;32.22;23.91;99623.88;7015098;28;20234;-79
2022/07/09 11:30:13;;;;;;;3.73;1.90;;;;;;;32.40;24.93;99617.19;7012859;28;20224;-80
2022/07/09 11:37:10;;;;;;;4.57;1.93;;;;;;;31.27;26.55;99625.84;7014120;28;20198;-79
2022/07/09 11:40:32;;;;;;;2.53;1.73;;;;;;;29.35;28.08;99616.63;7015236;28;20215;-80
2022/07/09 11:43:53;;;;;;;2.87;1.80;;;;;;;29.53;28.90;99610.19;7015212;28;20739;-79
2022/07/09 11:47:21;;;;;;;5.60;1.90;;;;;;;30.01;28.85;99618.91;7014375;28;20211;-79
2022/07/09 11:50:43;;;;;;;1.73;1.50;;;;;;;30.68;28.34;99604.81;7014635;28;20232;-79
2022/07/09 11:54:05;;;;;;;5.30;2.20;;;;;;;32.13;25.19;99611.06;7016298;28;20233;-80
2022/07/09 11:57:27;;;;;;;2.60;1.70;;;;;;;32.53;24.72;99596.66;7015179;28;20212;-80
2022/07/09 12:00:49;;;;;;;2.00;1.70;;;;;;;31.85;24.59;99568.66;7014689;28;20202;-80
2022/07/09 12:04:20;;;;;;;5.33;1.80;;;;;;;32.64;23.87;99575.59;7016259;28;20221;-80
2022/07/09 12:07:51;;;;;;;3.60;1.40;;;;;;;33.17;23.94;99586.34;7015451;28;20676;-80
2022/07/09 12:11:13;;;;;;;3.00;1.80;;;;;;;32.14;24.72;99579.22;7057428;28;20219;-80
2022/07/09 12:14:35;;;;;;;2.70;1.70;;;;;;;32.40;24.39;99569.72;7058856;28;20246;-80
2022/07/09 12:17:58;;;;;;;1.77;1.10;;;;;;;31.39;25.88;99576.72;7050804;28;20480;-80
2022/07/09 12:21:20;;;;;;;3.50;1.50;;;;;;;31.18;26.17;99583.13;7023615;28;20272;-80
2022/07/09 12:24:42;;;;;;;1.43;1.33;;;;;;;31.62;26.45;99581.06;7019115;28;20286;-80
2022/07/09 12:28:05;;;;;;;3.33;1.97;;;;;;;31.16;26.71;99568.72;7026152;28;20205;-80
2022/07/09 12:31:26;;;;;;;2.47;1.53;;;;;;;30.28;27.66;99574.34;7021265;28;20272;-80
2022/07/09 12:34:48;;;;;;;3.23;1.50;;;;;;;30.65;26.98;99563.69;7012263;28;20271;-80
2022/07/09 12:38:11;;;;;;;2.50;1.53;;;;;;;31.69;25.74;99556.31;7012247;28;20202;-80
2022/07/09 12:41:32;;;;;;;2.30;1.70;;;;;;;30.61;26.37;99561.81;7012823;28;20216;-80
2022/07/09 12:44:54;;;;;;;2.90;1.43;;;;;;;30.91;27.19;99547.94;7037566;28;20240;-80
2022/07/09 12:48:17;;;;;;;2.77;1.63;;;;;;;30.07;27.20;99540.56;7036637;28;20292;-80
2022/07/09 12:51:38;;;;;;;2.73;1.50;;;;;;;30.27;26.72;99534.56;7038543;28;20237;-80
2022/07/09 12:55:02;;;;;;;2.80;1.40;;;;;;;30.81;26.45;99539.03;7038657;28;20310;-80
2022/07/09 12:58:23;;;;;;;5.47;1.50;;;;;;;31.41;26.23;99540.13;7040706;28;20216;-80
2022/07/09 13:01:45;;;;;;;2.73;1.80;;;;;;;31.79;25.65;99530.09;7042575;28;20204;-81
2022/07/09 13:05:09;;;;;;;1.73;1.27;;;;;;;32.06;25.42;99522.25;7041092;28;20225;-81
2022/07/09 13:08:30;;;;;;;3.37;1.17;;;;;;;32.27;24.92;99528.84;7038231;28;20262;-80
2022/07/09 13:11:53;;;;;;;2.20;1.77;;;;;;;31.76;26.17;99527.94;7039126;28;20572;-79
2022/07/09 13:15:20;;;;;;;1.73;1.27;;;;;;;32.32;24.13;99520.28;7039050;28;20221;-80
2022/07/09 13:18:42;;;;;;;1.63;1.07;;;;;;;29.92;27.23;99517.88;7038007;28;20212;-79
2022/07/09 13:22:04;;;;;;;1.90;1.30;;;;;;;29.69;27.87;99517.00;7040592;28;20205;-79
2022/07/09 13:25:25;;;;;;;3.53;1.33;;;;;;;30.40;27.66;99521.72;7039305;28;20228;-79
2022/07/09 13:28:48;;;;;;;2.07;1.33;;;;;;;30.99;25.99;99505.38;7039712;28;20271;-79
2022/07/09 13:32:10;;;;;;;2.60;1.53;;;;;;;31.63;25.39;99510.19;7039214;28;20746;-79
2022/07/09 13:35:31;;;;;;;2.33;1.23;;;;;;;31.38;25.37;99499.78;7037932;28;20217;-79
2022/07/09 13:38:53;;;;;;;1.60;1.40;;;;;;;31.69;25.01;99489.38;7038686;28;20209;-80
2022/07/09 13:42:14;;;;;;;1.63;1.30;;;;;;;31.94;24.15;99501.72;7039826;28;20252;-79
2022/07/09 13:45:37;;;;;;;1.27;1.17;;;;;;;32.14;nan;99506.66;7039416;28;20235;-80
2022/07/09 13:48:59;;;;;;;3.20;1.77;;;;;;;31.78;24.91;99484.63;7040063;28;20216;-79
2022/07/09 13:52:21;;;;;;;2.17;1.40;;;;;;;31.94;24.42;99483.00;7040927;28;20223;-79
2022/07/09 13:55:44;;;;;;;1.13;1.03;;;;;;;31.70;24.65;99479.84;7042602;28;20205;-80
2022/07/09 13:59:06;;;;;;;3.23;1.13;;;;;;;32.16;24.25;99482.00;7039168;28;20212;-80
2022/07/09 14:02:30;;;;;;;2.37;1.20;;;;;;;31.86;24.31;99481.06;7038986;28;20216;-79
2022/07/09 14:05:51;;;;;;;2.80;1.57;;;;;;;31.83;24.03;99470.53;7040160;28;20203;-80
2022/07/09 14:09:13;;;;;;;1.90;1.20;;;;;;;31.54;24.44;99467.53;7040764;28;20228;-79
2022/07/09 14:12:34;;;;;;;2.57;1.30;;;;;;;31.69;24.84;99453.13;7049138;28;20200;-80
2022/07/09 14:15:57;;;;;;;1.13;1.10;;;;;;;30.32;26.54;99459.28;7048723;28;20220;-79
2022/07/09 14:19:20;;;;;;;4.23;1.60;;;;;;;30.40;26.66;99455.75;7037698;28;20209;-79
2022/07/09 14:22:41;;;;;;;2.60;1.33;;;;;;;30.46;26.79;99460.03;7038141;28;20216;-79
2022/07/09 14:26:03;;;;;;;2.77;1.70;;;;;;;31.05;25.83;99456.72;7052009;28;20192;-79
2022/07/09 14:29:24;;;;;;;2.97;1.47;;;;;;;30.59;26.75;99455.50;7045298;28;20229;-79
2022/07/09 14:32:46;;;;;;;2.40;1.70;;;;;;;31.89;25.39;99443.31;7018177;28;20231;-79
2022/07/09 14:36:09;;;;;;;2.30;1.33;;;;;;;31.22;26.15;99445.66;7009658;28;20236;-80
2022/07/09 14:39:30;;;;;;;2.40;1.77;;;;;;;30.80;26.37;99426.81;7009282;28;20213;-79
2022/07/09 14:42:52;;;;;;;2.33;1.77;;;;;;;31.40;25.74;99447.34;7008911;28;20741;-79
2022/07/09 14:46:13;;;;;;;2.50;1.90;;;;;;;31.03;26.25;99445.09;7008947;28;20216;-80
2022/07/09 14:49:35;;;;;;;1.33;1.23;;;;;;;31.67;25.71;99438.66;7009063;28;20242;-79
2022/07/09 14:52:58;;;;;;;1.93;1.40;;;;;;;31.75;25.10;99406.38;7009377;28;20230;-80
2022/07/09 14:56:20;;;;;;;1.90;1.50;;;;;;;31.32;25.58;99419.44;7009326;28;20211;-80
2022/07/09 14:59:41;;;;;;;1.43;1.33;;;;;;;31.54;25.83;99431.28;7008604;28;20673;-79
2022/07/09 15:03:03;;;;;;;1.93;1.60;;;;;;;30.79;26.93;99419.59;7008896;28;20224;-80
2022/07/09 15:06:25;;;;;;;4.70;1.70;;;;;;;31.50;26.16;99402.44;7008184;28;20212;-79
2022/07/09 15:09:47;;;;;;;1.80;1.70;;;;;;;30.92;26.29;99427.03;7023537;28;20309;-77
2022/07/09 15:13:09;;;;;;;2.90;1.60;;;;;;;31.13;26.51;99416.13;7024605;28;20306;-79
2022/07/09 15:16:31;;;;;;;2.03;1.50;;;;;;;29.91;27.58;99416.09;7033286;28;20198;-79
2022/07/09 15:19:52;;;;;;;2.67;1.70;;;;;;;30.80;26.88;99404.56;7018544;28;20199;-79
2022/07/09 15:23:14;;;;;;;2.40;1.60;;;;;;;31.03;26.30;99399.69;7006006;28;20230;-79
2022/07/09 15:26:37;;;;;;;2.80;2.00;;;;;;;31.32;26.40;99395.16;7006041;28;20664;-80
2022/07/09 15:30:00;;;;;;;2.37;1.60;;;;;;;31.64;26.68;99405.03;7004289;28;20245;-79
2022/07/09 15:33:22;;;;;;;5.47;1.53;;;;;;;30.91;27.48;99408.66;7011466;28;20592;-80
2022/07/09 15:36:43;;;;;;;2.53;1.90;;;;;;;31.10;27.38;99403.66;7031100;28;20227;-80
2022/07/09 15:40:05;;;;;;;1.93;1.67;;;;;;;31.31;26.91;99399.09;7032919;28;20273;-79
2022/07/09 15:43:28;;;;;;;3.63;1.60;;;;;;;30.71;27.58;99398.13;7035470;28;20301;-79
2022/07/09 15:46:50;;;;;;;4.27;1.77;;;;;;;30.88;27.72;99389.81;7014259;28;20224;-79
2022/07/09 15:50:12;;;;;;;3.50;2.17;;;;;;;31.08;26.80;99389.19;7006636;28;20320;-79
2022/07/09 15:53:33;;;;;;;2.53;1.80;;;;;;;31.25;27.07;99368.97;7020180;28;20275;-78
2022/07/09 15:56:55;;;;;;;2.80;1.70;;;;;;;31.07;27.86;99393.13;7035706;28;20354;-79
2022/07/09 16:00:23;;;;;;;2.40;2.03;;;;;;;30.79;27.11;99349.16;7033579;28;20684;-79